N42J KRIC-KORF
Flight info
| Callsign | N42J |
|---|---|
| Flight time | N/A |
| Altitude | 8000 |
| Route | KRIC/02 N0280F150 DCT WAIKS DCT CALEY DCT PEAAY DCT ACUNO DCT KORF/05 |
| Aircraft | PC12/L-V/N |
Departure
| Time | 2026-04-26 22:14 |
|---|---|
| Airport | Richmond International Airport (KRIC) |
Arrival
| Time | N/A |
|---|---|
| Airport | Norfolk International Airport (KORF) |
| Time | Latitude | Longitude | Altitude | Speed | Heading |
|---|---|---|---|---|---|
| 2026-04-26 22:03 | 37.51689 | -77.32929 | 164 ft | 0 kts | 70° |
| 2026-04-26 22:09 | 37.51691 | -77.32922 | 164 ft | 4 kts | 69° |
| 2026-04-26 22:09 | 37.51662 | -77.32867 | 163 ft | 15 kts | 155° |
| 2026-04-26 22:09 | 37.51640 | -77.32756 | 163 ft | 17 kts | 89° |
| 2026-04-26 22:10 | 37.51630 | -77.32614 | 163 ft | 7 kts | 143° |
| 2026-04-26 22:10 | 37.51543 | -77.32610 | 164 ft | 18 kts | 192° |
| 2026-04-26 22:10 | 37.51384 | -77.32658 | 164 ft | 27 kts | 197° |
| 2026-04-26 22:10 | 37.51261 | -77.32692 | 163 ft | 13 kts | 192° |
| 2026-04-26 22:11 | 37.51137 | -77.32730 | 164 ft | 23 kts | 193° |
| 2026-04-26 22:11 | 37.51004 | -77.32770 | 164 ft | 20 kts | 195° |
| 2026-04-26 22:11 | 37.50837 | -77.32821 | 164 ft | 28 kts | 193° |
| 2026-04-26 22:11 | 37.50623 | -77.32886 | 160 ft | 34 kts | 194° |
| 2026-04-26 22:12 | 37.50379 | -77.32957 | 160 ft | 29 kts | 193° |
| 2026-04-26 22:12 | 37.50169 | -77.33023 | 160 ft | 33 kts | 193° |
| 2026-04-26 22:12 | 37.50004 | -77.33072 | 160 ft | 25 kts | 194° |
| 2026-04-26 22:12 | 37.49924 | -77.33064 | 160 ft | 2 kts | 134° |
| 2026-04-26 22:13 | 37.49923 | -77.33064 | 160 ft | 0 kts | 134° |
| 2026-04-26 22:13 | 37.49918 | -77.33054 | 160 ft | 6 kts | 117° |
| 2026-04-26 22:13 | 37.49919 | -77.32961 | 160 ft | 15 kts | 32° |
| 2026-04-26 22:13 | 37.49970 | -77.32942 | 160 ft | 1 kts | 13° |
| 2026-04-26 22:14 | 37.50182 | -77.32877 | 160 ft | 71 kts | 15° |
| 2026-04-26 22:14 | 37.50848 | -77.32686 | 249 ft | 113 kts | 12° |
| 2026-04-26 22:14 | 37.51660 | -77.32449 | 625 ft | 128 kts | 13° |
| 2026-04-26 22:14 | 37.52558 | -77.32232 | 1073 ft | 138 kts | 13° |
| 2026-04-26 22:15 | 37.53416 | -77.31798 | 1588 ft | 141 kts | 46° |
| 2026-04-26 22:15 | 37.53697 | -77.30598 | 2006 ft | 156 kts | 94° |
| 2026-04-26 22:15 | 37.53090 | -77.29426 | 2406 ft | 177 kts | 141° |
| 2026-04-26 22:15 | 37.51846 | -77.29071 | 2817 ft | 192 kts | 181° |
| 2026-04-26 22:16 | 37.50487 | -77.29234 | 3176 ft | 200 kts | 185° |
| 2026-04-26 22:16 | 37.49068 | -77.29337 | 3524 ft | 206 kts | 177° |
| 2026-04-26 22:16 | 37.47628 | -77.29206 | 3867 ft | 210 kts | 170° |
| 2026-04-26 22:16 | 37.46208 | -77.28886 | 4204 ft | 213 kts | 165° |
| 2026-04-26 22:17 | 37.44749 | -77.28419 | 4552 ft | 216 kts | 161° |
| 2026-04-26 22:17 | 37.43325 | -77.27859 | 4894 ft | 218 kts | 158° |
| 2026-04-26 22:17 | 37.41880 | -77.27214 | 5241 ft | 220 kts | 156° |
| 2026-04-26 22:17 | 37.40459 | -77.26530 | 5583 ft | 222 kts | 155° |
| 2026-04-26 22:18 | 37.39016 | -77.25796 | 5929 ft | 224 kts | 154° |
| 2026-04-26 22:18 | 37.37582 | -77.25044 | 6273 ft | 225 kts | 154° |
| 2026-04-26 22:18 | 37.36137 | -77.24268 | 6618 ft | 227 kts | 154° |
| 2026-04-26 22:18 | 37.34702 | -77.23486 | 6958 ft | 228 kts | 154° |
| 2026-04-26 22:19 | 37.33234 | -77.22678 | 7305 ft | 229 kts | 154° |
| 2026-04-26 22:19 | 37.31766 | -77.21865 | 7656 ft | 231 kts | 154° |
| 2026-04-26 22:19 | 37.30309 | -77.21056 | 7993 ft | 232 kts | 154° |
| 2026-04-26 22:19 | 37.28802 | -77.20219 | 8129 ft | 243 kts | 154° |
| 2026-04-26 22:20 | 37.28558 | -77.20084 | 8133 ft | 245 kts | 154° |